Time;durP1;ratioP1;P1;durP2;ratioP2;P2;SDS_P1;SDS_P2;PMS_P1;PMS_P2;Temp;Humidity;BMP_temperature;BMP_pressure;BME280_temperature;BME280_humidity;BME280_pressure;Samples;Min_cycle;Max_cycle;Signal;HPM_P1;HPM_P2
2023/04/02 00:01:38;;;;;;;11.10;4.30;;;9.30;99.90;;;8.55;100.00;101485.19;4217365;28;20574;-78
2023/04/02 00:03:43;;;;;;;8.43;4.15;;;9.30;99.90;;;8.52;100.00;101488.06;4218663;28;20024;-79
2023/04/02 00:05:50;;;;;;;10.88;3.63;;;9.30;99.90;;;8.50;100.00;101486.53;4220408;28;20441;-79
2023/04/02 00:07:56;;;;;;;12.13;4.22;;;9.30;99.90;;;8.49;100.00;101503.25;4223769;28;20050;-78
2023/04/02 00:09:58;;;;;;;14.27;4.15;;;9.30;99.90;;;8.43;100.00;101499.31;4202551;28;20087;-79
2023/04/02 00:12:16;;;;;;;7.90;3.45;;;9.20;99.90;;;8.52;100.00;101498.56;4202302;28;20549;-79
2023/04/02 00:14:29;;;;;;;11.50;4.45;;;9.20;99.90;;;8.44;100.00;101495.75;4202247;28;20059;-79
2023/04/02 00:16:31;;;;;;;10.27;4.32;;;9.20;99.90;;;8.40;100.00;101488.22;4202449;28;20035;-78
2023/04/02 00:18:35;;;;;;;13.48;3.72;;;9.20;99.90;;;8.43;100.00;101504.59;4202334;28;20043;-78
2023/04/02 00:20:40;;;;;;;6.63;3.53;;;9.20;99.90;;;8.42;100.00;101507.34;4201973;28;20036;-78
2023/04/02 00:22:43;;;;;;;11.25;3.63;;;9.20;99.90;;;8.45;100.00;101502.69;4222863;28;20107;-79
2023/04/02 00:24:45;;;;;;;10.43;3.60;;;9.20;99.90;;;8.50;100.00;101518.06;4202320;28;20021;-78
2023/04/02 00:26:51;;;;;;;15.93;4.10;;;9.20;99.90;;;8.52;100.00;101518.78;4195505;28;20028;-78
2023/04/02 00:28:52;;;;;;;17.23;4.72;;;9.20;99.90;;;8.41;100.00;101517.03;4218799;28;20043;-79
2023/04/02 00:30:59;;;;;;;9.27;3.65;;;9.20;99.90;;;8.39;100.00;101515.47;4219139;28;20032;-79
2023/04/02 00:33:00;;;;;;;11.30;3.85;;;9.20;99.90;;;8.41;100.00;101519.66;4218743;28;20032;-79
2023/04/02 00:35:02;;;;;;;12.77;4.45;;;9.20;99.90;;;8.37;100.00;101515.59;4218733;28;20027;-79
2023/04/02 00:37:04;;;;;;;10.43;3.85;;;9.20;99.90;;;8.51;100.00;101512.69;4218541;28;20539;-79
2023/04/02 00:39:17;;;;;;;14.95;4.05;;;9.30;99.90;;;8.53;100.00;101513.41;4218538;28;20047;-79
2023/04/02 00:41:26;;;;;;;14.68;4.10;;;9.30;99.90;;;8.59;100.00;101514.69;4218446;28;20024;-79
2023/04/02 00:43:30;;;;;;;13.18;3.38;;;9.30;99.90;;;8.49;100.00;101525.13;4218537;28;20107;-79
2023/04/02 00:45:37;;;;;;;15.18;3.47;;;9.30;99.90;;;8.41;100.00;101517.03;4218643;28;20063;-78
2023/04/02 00:47:39;;;;;;;13.68;4.22;;;9.30;99.90;;;8.45;100.00;101523.72;4218910;28;20103;-79
2023/04/02 00:49:42;;;;;;;19.05;3.70;;;9.20;99.90;;;8.42;100.00;101529.22;4201571;28;20024;-79
2023/04/02 00:51:56;;;;;;;13.23;4.25;;;9.30;99.90;;;8.36;100.00;101515.72;4218519;28;20429;-79
2023/04/02 00:54:03;;;;;;;14.35;4.43;;;9.20;99.90;;;8.41;100.00;101527.53;4218541;28;20529;-79
2023/04/02 00:56:21;;;;;;;13.02;5.05;;;9.20;99.90;;;8.37;100.00;101520.00;4218035;28;20028;-79
2023/04/02 00:58:34;;;;;;;9.50;3.72;;;9.20;99.90;;;8.36;100.00;101528.88;4218464;28;20035;-79
2023/04/02 01:00:36;;;;;;;16.65;4.45;;;9.20;99.90;;;8.38;100.00;101519.91;4218292;28;20040;-79
2023/04/02 01:02:39;;;;;;;10.63;4.10;;;9.20;99.90;;;8.32;100.00;101530.91;4219469;28;20020;-79
2023/04/02 01:04:40;;;;;;;12.63;4.38;;;9.10;99.90;;;8.30;100.00;101533.63;4219360;28;20461;-79
2023/04/02 01:06:42;;;;;;;17.88;4.00;;;9.10;99.90;;;8.29;100.00;101526.72;4218399;28;20419;-79
2023/04/02 01:09:03;;;;;;;16.85;4.30;;;9.10;99.90;;;8.39;100.00;101534.72;4193575;28;20044;-79
2023/04/02 01:11:25;;;;;;;16.15;4.13;;;9.10;99.90;;;8.31;100.00;101539.75;4216541;28;20048;-79
2023/04/02 01:14:12;;;;;;;11.38;4.03;;;9.10;99.90;;;8.32;100.00;101544.03;4219490;28;20035;-79
2023/04/02 01:16:31;;;;;;;9.63;4.05;;;9.10;99.90;;;8.29;100.00;101545.13;4218460;28;20020;-78
2023/04/02 01:18:49;;;;;;;13.98;4.80;;;9.10;99.90;;;8.40;100.00;101535.53;4219244;28;20035;-78
2023/04/02 01:21:41;;;;;;;14.18;4.03;;;9.10;99.90;;;8.32;100.00;101538.78;4219038;28;20096;-79
2023/04/02 01:24:07;;;;;;;15.27;3.80;;;9.10;99.90;;;8.29;100.00;101533.78;4201549;28;20133;-79
2023/04/02 01:26:33;;;;;;;13.60;4.10;;;9.10;99.90;;;8.34;100.00;101544.75;4218096;28;20031;-79
2023/04/02 01:29:13;;;;;;;9.32;3.78;;;9.10;99.90;;;8.51;100.00;101536.34;4217998;28;20024;-79
2023/04/02 01:31:15;;;;;;;13.30;4.30;;;9.20;99.90;;;8.41;100.00;101537.22;4217983;28;20506;-79
2023/04/02 01:33:17;;;;;;;11.43;4.53;;;9.20;99.90;;;8.49;100.00;101540.91;4217931;28;20095;-79
2023/04/02 01:35:20;;;;;;;14.70;3.78;;;9.20;99.90;;;8.38;100.00;101551.44;4217827;28;20028;-79
2023/04/02 01:37:57;;;;;;;11.55;3.25;;;9.20;99.90;;;8.30;100.00;101538.09;4219144;28;20046;-79
2023/04/02 01:40:16;;;;;;;10.07;3.40;;;9.10;99.90;;;8.49;100.00;101551.41;4217902;28;20020;-79
2023/04/02 01:42:41;;;;;;;8.75;3.15;;;9.20;99.90;;;8.47;100.00;101550.72;4218817;28;20024;-79
2023/04/02 01:44:52;;;;;;;;;;;9.30;99.90;;;8.46;100.00;101550.81;4219235;28;20395;-79
2023/04/02 01:46:54;;;;;;;13.85;4.18;;;9.30;99.90;;;8.37;100.00;101547.13;4218749;28;20482;-79
2023/04/02 01:48:58;;;;;;;15.63;4.20;;;9.30;99.90;;;8.44;100.00;101548.31;4212173;28;20028;-78
2023/04/02 01:51:04;;;;;;;15.75;4.78;;;9.20;99.90;;;8.42;100.00;101552.03;4200970;28;20431;-79
2023/04/02 01:53:13;;;;;;;14.10;3.85;;;9.30;99.90;;;8.32;100.00;101558.03;4200886;28;20029;-78
2023/04/02 01:55:24;;;;;;;10.55;3.03;;;9.20;99.90;;;8.42;100.00;101541.53;4201215;28;20098;-79
2023/04/02 01:57:26;;;;;;;14.25;3.35;;;9.20;99.90;;;8.41;100.00;101559.09;4201043;28;20506;-79
2023/04/02 01:59:27;;;;;;;8.95;3.05;;;9.20;99.90;;;8.52;100.00;101564.31;4213779;28;20056;-79
2023/04/02 02:01:41;;;;;;;8.63;3.45;;;9.20;99.90;;;8.45;100.00;101572.84;4218688;28;20082;-79
2023/04/02 02:03:43;;;;;;;8.60;3.20;;;9.20;99.90;;;8.36;100.00;101557.78;4210741;28;20024;-78
2023/04/02 02:05:45;;;;;;;10.07;3.97;;;9.20;99.90;;;8.43;100.00;101557.16;4211069;28;20028;-78
2023/04/02 02:07:46;;;;;;;10.68;3.28;;;9.20;99.90;;;8.43;100.00;101562.41;4200279;28;20428;-79
2023/04/02 02:09:48;;;;;;;7.95;3.03;;;9.20;99.90;;;8.32;100.00;101567.69;4202053;28;20025;-79
2023/04/02 02:11:50;;;;;;;12.05;3.40;;;9.10;99.90;;;8.28;100.00;101569.72;4200554;28;20039;-78
2023/04/02 02:13:58;;;;;;;10.40;3.03;;;9.10;99.90;;;8.32;100.00;101575.59;4200521;28;20040;-78
2023/04/02 02:16:02;;;;;;;6.18;2.65;;;9.10;99.90;;;8.32;100.00;101578.22;4200541;28;20056;-78
2023/04/02 02:18:05;;;;;;;11.83;3.40;;;9.10;99.90;;;8.37;100.00;101570.78;4200779;28;20028;-78
2023/04/02 02:20:09;;;;;;;8.98;2.65;;;9.20;99.90;;;8.39;100.00;101582.03;4200679;28;20028;-79
2023/04/02 02:22:36;;;;;;;10.80;2.50;;;9.20;99.90;;;8.61;100.00;101587.25;4195937;28;20102;-79
2023/04/02 02:24:37;;;;;;;9.18;3.42;;;9.30;99.90;;;8.72;100.00;101578.50;4217495;28;20035;-79
2023/04/02 02:26:40;;;;;;;8.57;3.33;;;9.50;99.90;;;8.73;100.00;101575.75;4217140;28;20024;-79
2023/04/02 02:28:44;;;;;;;8.57;2.83;;;9.50;99.90;;;8.80;100.00;101583.97;4208745;28;20033;-79
2023/04/02 02:31:06;;;;;;;10.07;2.83;;;9.60;99.90;;;8.97;100.00;101582.59;4203850;28;20023;-78
2023/04/02 02:33:20;;;;;;;10.32;2.80;;;9.70;99.90;;;9.00;100.00;101587.63;4204108;28;20035;-78
2023/04/02 02:35:32;;;;;;;16.55;2.65;;;9.70;99.90;;;9.02;100.00;101596.25;4203853;28;20028;-79
2023/04/02 02:37:41;;;;;;;18.10;3.03;;;9.80;99.90;;;9.06;100.00;101597.63;4203953;28;20043;-79
2023/04/02 02:39:45;;;;;;;12.02;2.65;;;9.80;99.90;;;9.16;100.00;101603.84;4203894;28;20035;-78
2023/04/02 02:42:01;;;;;;;10.15;2.60;;;9.90;99.90;;;9.12;100.00;101600.63;4217755;28;20395;-79
2023/04/02 02:44:08;;;;;;;10.43;3.50;;;9.90;99.90;;;9.15;100.00;101610.91;4220623;28;20089;-78
2023/04/02 02:46:16;;;;;;;9.57;2.55;;;9.90;99.90;;;9.18;100.00;101613.28;4221781;28;20028;-79
2023/04/02 02:48:21;;;;;;;10.80;2.65;;;10.00;99.90;;;9.22;100.00;101614.69;4220524;28;20522;-79
2023/04/02 02:50:32;;;;;;;9.18;2.67;;;10.00;99.90;;;9.26;100.00;101621.38;4203604;28;20564;-79
2023/04/02 02:52:38;;;;;;;8.25;2.20;;;10.00;99.90;;;9.18;100.00;101613.28;4220559;28;20016;-79
2023/04/02 02:54:57;;;;;;;10.27;3.03;;;10.00;99.90;;;9.25;100.00;101621.50;4220508;28;20034;-79
2023/04/02 02:57:06;;;;;;;8.77;2.30;;;10.00;99.90;;;9.34;100.00;101623.38;4220251;28;20034;-79
2023/04/02 02:59:10;;;;;;;10.35;2.42;;;10.00;99.90;;;9.30;100.00;101622.78;4203447;28;20407;-79
2023/04/02 03:01:11;;;;;;;7.57;2.13;;;10.10;99.90;;;9.26;100.00;101616.09;4220391;28;20020;-78
2023/04/02 03:03:20;;;;;;;9.88;2.60;;;10.10;99.90;;;9.32;100.00;101623.50;4217418;28;20270;-79
2023/04/02 03:05:25;;;;;;;6.60;2.03;;;10.10;99.90;;;9.30;100.00;101621.97;4210816;28;20024;-79
2023/04/02 03:07:28;;;;;;;6.45;1.80;;;10.10;99.90;;;9.30;100.00;101628.06;4223570;28;20016;-79
2023/04/02 03:09:52;;;;;;;9.15;2.42;;;10.10;99.90;;;9.30;100.00;101627.22;4208137;28;20075;-79
2023/04/02 03:12:24;;;;;;;9.68;2.00;;;10.10;99.90;;;9.29;100.00;101630.81;4210922;28;20085;-78
2023/04/02 03:14:56;;;;;;;7.88;2.10;;;10.10;99.90;;;9.26;100.00;101638.97;4218225;28;20024;-79
2023/04/02 03:17:16;;;;;;;10.23;2.20;;;10.10;99.90;;;9.23;100.00;101626.03;4204217;28;20039;-79
2023/04/02 03:19:34;;;;;;;7.50;2.22;;;10.10;99.90;;;9.24;100.00;101627.72;4203003;28;20029;-79
2023/04/02 03:22:11;;;;;;;8.70;2.15;;;10.10;99.90;;;9.30;100.00;101637.75;4204346;28;20402;-79
2023/04/02 03:24:45;;;;;;;5.15;2.15;;;10.10;99.90;;;9.31;100.00;101636.81;4214226;28;20046;-79
2023/04/02 03:26:57;;;;;;;9.05;2.58;;;10.10;99.90;;;9.29;100.00;101636.06;4213417;28;20544;-79
2023/04/02 03:29:27;;;;;;;7.63;1.83;;;10.10;99.90;;;9.31;100.00;101636.81;4219615;28;20024;-78
2023/04/02 03:31:40;;;;;;;10.55;2.10;;;10.10;99.90;;;9.32;100.00;101631.41;4216644;28;20515;-79
2023/04/02 03:34:22;;;;;;;6.72;1.92;;;10.10;99.90;;;9.33;100.00;101650.66;4219945;28;20024;-79
2023/04/02 03:36:50;;;;;;;10.27;2.03;;;10.10;99.90;;;9.34;100.00;101644.44;4220989;28;20426;-79
2023/04/02 03:39:00;;;;;;;4.57;1.65;;;10.10;99.90;;;9.36;100.00;101650.41;4218649;28;20028;-79
2023/04/02 03:41:18;;;;;;;6.45;2.00;;;10.10;99.90;;;9.38;100.00;101649.31;4219471;28;20032;-78
2023/04/02 03:43:31;;;;;;;7.68;1.90;;;10.10;99.90;;;9.37;100.00;101660.84;4219586;28;20048;-79
2023/04/02 03:45:39;;;;;;;7.60;1.85;;;10.10;99.90;;;9.39;100.00;101652.78;4220977;28;20047;-79
2023/04/02 03:47:53;;;;;;;8.70;2.05;;;10.10;99.90;;;9.42;100.00;101665.72;4219527;28;20115;-79
2023/04/02 03:50:05;;;;;;;7.78;1.63;;;10.10;99.90;;;9.39;100.00;101666.81;4218075;28;20034;-79
2023/04/02 03:52:25;;;;;;;6.00;1.80;;;10.20;99.90;;;9.36;100.00;101669.69;4214413;28;20024;-79
2023/04/02 03:54:27;;;;;;;10.05;1.70;;;10.20;99.90;;;9.38;100.00;101674.81;4207043;28;20028;-78
2023/04/02 03:56:38;;;;;;;6.13;2.05;;;10.20;99.90;;;9.41;100.00;101678.03;4202280;28;20094;-79
2023/04/02 03:58:47;;;;;;;5.47;2.08;;;10.20;99.90;;;9.43;100.00;101680.56;4202714;28;20051;-79
2023/04/02 04:01:27;;;;;;;7.07;1.75;;;10.20;99.90;;;9.36;100.00;101679.38;4203540;28;20550;-79
2023/04/02 04:03:41;;;;;;;7.28;2.22;;;10.20;99.90;;;9.41;100.00;101687.72;4207663;28;20028;-79
2023/04/02 04:05:56;;;;;;;3.38;1.38;;;10.20;99.90;;;9.38;100.00;101677.44;4219333;28;20078;-79
2023/04/02 04:08:11;;;;;;;5.18;1.75;;;10.20;99.90;;;9.42;100.00;101684.16;4223045;28;20048;-79
2023/04/02 04:10:24;;;;;;;6.68;1.98;;;10.20;99.90;;;9.32;100.00;101678.78;4214515;28;20043;-79
2023/04/02 04:12:45;;;;;;;6.75;1.80;;;10.20;99.90;;;9.36;100.00;101679.38;4202194;28;20036;-79
2023/04/02 04:15:21;;;;;;;9.73;2.35;;;10.20;99.90;;;9.31;100.00;101671.03;4206894;28;20491;-79
2023/04/02 04:17:52;;;;;;;6.95;2.50;;;10.20;99.90;;;9.31;100.00;101684.19;4211617;28;20043;-79
2023/04/02 04:20:14;;;;;;;3.83;1.48;;;10.20;99.90;;;9.31;100.00;101692.09;4212344;28;20033;-78
2023/04/02 04:22:30;;;;;;;10.25;2.28;;;10.10;99.90;;;9.30;100.00;101695.69;4202349;28;20031;-79
2023/04/02 04:24:38;;;;;;;6.25;1.48;;;10.10;99.90;;;9.34;100.00;101691.84;4202451;28;20025;-78
2023/04/02 04:26:52;;;;;;;3.28;1.52;;;10.10;99.90;;;9.30;100.00;101706.22;4202042;28;20541;-78
2023/04/02 04:29:13;;;;;;;6.93;1.40;;;10.10;99.90;;;9.37;100.00;101704.75;4203428;28;20024;-79
2023/04/02 04:31:54;;;;;;;6.03;1.40;;;10.20;99.90;;;9.36;100.00;101708.34;4207391;28;20107;-79
2023/04/02 04:34:04;;;;;;;6.88;1.55;;;10.10;99.90;;;9.31;100.00;101707.88;4212725;28;20113;-79
2023/04/02 04:36:18;;;;;;;5.40;1.67;;;10.10;99.90;;;9.26;100.00;101705.63;4218627;28;20031;-79
2023/04/02 04:38:31;;;;;;;3.90;1.13;;;10.10;99.90;;;9.32;100.00;101714.81;4218889;28;20019;-79
2023/04/02 04:40:44;;;;;;;1.73;0.85;;;10.10;99.90;;;9.25;100.00;101716.28;4215173;28;20029;-78
2023/04/02 04:42:49;;;;;;;3.67;1.10;;;10.10;99.90;;;9.31;100.00;101713.16;4201925;28;20028;-78
2023/04/02 04:45:07;;;;;;;4.50;1.15;;;10.10;99.90;;;9.31;100.00;101718.41;4230726;28;20027;-79
2023/04/02 04:47:25;;;;;;;4.90;1.45;;;10.10;99.90;;;9.28;100.00;101723.94;4201925;28;20103;-78
2023/04/02 04:50:02;;;;;;;7.72;1.50;;;10.10;99.90;;;9.22;100.00;101727.91;4216499;28;20098;-79
2023/04/02 04:52:32;;;;;;;7.40;1.35;;;10.10;99.90;;;9.26;100.00;101725.84;4183273;28;20549;-79
2023/04/02 04:54:38;;;;;;;7.30;1.52;;;10.10;99.90;;;9.23;100.00;101729.56;4202106;28;20029;-78
2023/04/02 04:56:43;;;;;;;4.65;1.10;;;10.10;99.90;;;9.24;100.00;101722.50;4201305;28;20129;-78
2023/04/02 04:59:16;;;;;;;7.75;1.42;;;10.10;99.90;;;9.18;100.00;101708.03;4201639;28;20028;-79
2023/04/02 05:01:28;;;;;;;6.63;1.80;;;10.00;99.90;;;8.88;100.00;101698.16;4202926;28;20024;-79
2023/04/02 05:04:08;;;;;;;7.72;1.70;;;9.90;99.90;;;8.79;100.00;101701.53;4218443;28;20470;-79
2023/04/02 05:06:34;;;;;;;4.78;1.55;;;9.70;99.90;;;8.79;100.00;101704.16;4220331;28;20024;-79
2023/04/02 05:08:40;;;;;;;5.85;1.40;;;9.60;99.90;;;8.64;100.00;101708.00;4216852;28;20051;-78
2023/04/02 05:11:00;;;;;;;6.18;1.67;;;9.50;99.90;;;8.67;100.00;101718.28;4205911;28;20021;-79
2023/04/02 05:13:18;;;;;;;5.40;1.27;;;9.50;99.90;;;8.52;100.00;101722.09;4204598;28;20096;-79
2023/04/02 05:15:30;;;;;;;7.50;1.60;;;9.40;99.90;;;8.50;100.00;101718.75;4210306;28;20103;-79
2023/04/02 05:17:51;;;;;;;5.85;1.15;;;9.40;99.90;;;8.46;100.00;101722.56;4218045;28;20062;-79
2023/04/02 05:20:08;;;;;;;8.02;1.30;;;9.30;99.90;;;8.43;100.00;101733.31;4211332;28;20032;-78
2023/04/02 05:22:42;;;;;;;9.90;1.67;;;9.30;99.90;;;8.46;100.00;101733.06;4201285;28;20025;-78
2023/04/02 05:24:57;;;;;;;5.25;1.58;;;9.30;99.90;;;8.45;100.00;101731.44;4201368;28;20074;-78
2023/04/02 05:27:17;;;;;;;5.20;1.50;;;9.20;99.90;;;8.49;100.00;101729.38;4213913;28;20032;-78
2023/04/02 05:29:26;;;;;;;5.05;1.65;;;9.20;99.90;;;8.47;100.00;101729.50;4202014;28;20084;-79
2023/04/02 05:31:36;;;;;;;5.95;1.65;;;9.30;99.90;;;8.51;100.00;101738.00;4211090;28;20028;-78
2023/04/02 05:33:38;;;;;;;8.10;1.67;;;9.30;99.90;;;8.55;100.00;101729.75;4204823;28;20028;-78
2023/04/02 05:35:45;;;;;;;6.93;1.35;;;9.30;99.90;;;8.58;100.00;101740.03;4217063;28;20075;-78
2023/04/02 05:37:48;;;;;;;3.55;1.50;;;9.40;99.90;;;8.65;100.00;101743.88;4217908;28;20597;-78
2023/04/02 05:39:59;;;;;;;8.60;1.67;;;9.40;99.90;;;8.68;100.00;101758.56;4219773;28;20054;-78
2023/04/02 05:42:07;;;;;;;3.60;1.40;;;9.40;99.90;;;8.72;100.00;101755.56;4200753;28;20113;-79
2023/04/02 05:44:33;;;;;;;8.57;1.30;;;9.50;99.90;;;8.73;100.00;101765.13;4200798;28;20053;-78
2023/04/02 05:46:50;;;;;;;6.00;1.48;;;9.50;99.90;;;8.74;100.00;101774.72;4204051;28;20539;-79
2023/04/02 05:48:57;;;;;;;4.22;2.00;;;9.50;99.90;;;8.79;100.00;101772.56;4201009;28;20484;-78
2023/04/02 05:50:59;;;;;;;8.45;1.38;;;9.60;99.90;;;8.81;100.00;101773.25;4200945;28;20024;-79
2023/04/02 05:53:10;;;;;;;4.90;1.70;;;9.60;99.90;;;8.80;100.00;101776.88;4200876;28;20028;-79
2023/04/02 05:55:11;;;;;;;5.50;1.50;;;9.60;99.90;;;8.87;100.00;101779.84;4205744;28;20024;-79
2023/04/02 05:57:21;;;;;;;6.90;1.42;;;9.60;99.90;;;8.95;100.00;101781.88;4218471;28;20073;-79
2023/04/02 05:59:39;;;;;;;6.38;1.50;;;9.70;99.90;;;9.01;100.00;101779.63;4201152;28;20024;-79
2023/04/02 06:01:50;;;;;;;8.10;1.35;;;9.70;99.90;;;8.91;100.00;101773.38;4203661;28;20031;-79
2023/04/02 06:04:22;;;;;;;8.88;1.83;;;9.70;99.90;;;9.01;100.00;101787.50;4200826;28;20025;-79
2023/04/02 06:06:38;;;;;;;11.00;1.60;;;9.70;99.90;;;8.96;100.00;101786.19;4200818;28;20036;-79
2023/04/02 06:08:47;;;;;;;6.82;1.80;;;9.80;99.90;;;8.99;100.00;101781.50;4208710;28;20119;-79
2023/04/02 06:11:24;;;;;;;10.60;2.05;;;9.70;99.90;;;9.01;100.00;101786.66;4203889;28;20036;-79
2023/04/02 06:13:27;;;;;;;6.72;1.88;;;9.80;99.90;;;8.96;100.00;101786.19;4207549;28;20511;-79
2023/04/02 06:15:31;;;;;;;4.55;1.27;;;9.80;99.90;;;9.02;100.00;101786.53;4218509;28;20070;-79
2023/04/02 06:17:58;;;;;;;5.72;1.40;;;9.80;99.90;;;9.05;100.00;101794.19;4217191;28;20032;-79
2023/04/02 06:20:02;;;;;;;3.92;1.73;;;9.80;99.90;;;9.05;100.00;101793.38;4209534;28;20492;-79
2023/04/02 06:22:38;;;;;;;7.25;1.65;;;9.80;99.90;;;9.02;100.00;101802.31;4200512;28;20024;-79
2023/04/02 06:24:40;;;;;;;8.57;1.67;;;9.80;99.90;;;9.05;100.00;101809.16;4202907;28;20128;-79
2023/04/02 06:26:49;;;;;;;7.25;1.80;;;9.90;99.90;;;9.10;100.00;101815.75;4217036;28;20043;-79
2023/04/02 06:29:00;;;;;;;5.63;1.67;;;9.90;99.90;;;9.10;100.00;101820.16;4217110;28;20028;-79
2023/04/02 06:31:10;;;;;;;6.03;1.98;;;9.90;99.90;;;9.14;100.00;101818.97;4207085;28;20529;-79
2023/04/02 06:33:12;;;;;;;7.85;2.15;;;9.90;99.90;;;9.10;100.00;101831.53;4217282;28;20032;-79
2023/04/02 06:35:14;;;;;;;7.15;1.50;;;9.90;99.90;;;9.16;100.00;101835.47;4217164;28;20368;-79
2023/04/02 06:37:35;;;;;;;4.95;1.48;;;9.90;99.90;;;9.16;100.00;101840.75;4218351;28;20025;-79
2023/04/02 06:39:35;;;;;;;7.13;2.10;;;10.00;99.90;;;9.19;100.00;101840.50;4217010;28;20034;-79
2023/04/02 06:41:36;;;;;;;9.65;2.08;;;10.00;99.90;;;9.20;100.00;101836.91;4204055;28;20024;-80
2023/04/02 06:43:46;;;;;;;5.40;1.52;;;10.00;99.90;;;9.27;100.00;101833.66;4217363;28;20545;-79
2023/04/02 06:45:50;;;;;;;6.88;1.75;;;10.10;99.90;;;9.37;100.00;101839.06;4217321;28;20031;-79
2023/04/02 06:47:55;;;;;;;9.65;2.83;;;10.10;99.90;;;9.36;100.00;101842.63;4200375;28;20052;-79
2023/04/02 06:50:21;;;;;;;5.45;2.00;;;10.20;99.90;;;9.45;100.00;101845.38;4200404;28;20059;-79
2023/04/02 06:52:43;;;;;;;5.15;1.77;;;10.20;99.90;;;9.46;100.00;101848.88;4217404;28;20032;-80
2023/04/02 06:54:45;;;;;;;10.07;2.30;;;10.20;99.90;;;9.42;100.00;101852.69;4201357;28;20060;-80
2023/04/02 06:56:51;;;;;;;10.65;1.92;;;10.30;99.90;;;9.48;100.00;101849.56;4201405;28;20028;-79
2023/04/02 06:58:52;;;;;;;5.95;2.15;;;10.30;99.90;;;9.44;100.00;101862.13;4200338;28;20085;-79
2023/04/02 07:00:53;;;;;;;10.98;2.42;;;10.30;99.90;;;9.49;100.00;101843.34;4204111;28;20439;-79
2023/04/02 07:02:56;;;;;;;6.30;2.10;;;10.30;99.90;;;9.58;100.00;101858.41;4214846;28;20434;-78
2023/04/02 07:05:07;;;;;;;8.85;2.80;;;10.40;99.90;;;9.60;100.00;101850.38;4214256;28;20036;-82
2023/04/02 07:07:08;;;;;;;9.20;2.25;;;10.40;99.90;;;9.69;100.00;101865.44;4202804;28;20025;-80
2023/04/02 07:09:09;;;;;;;9.40;2.67;;;10.40;99.90;;;9.70;100.00;101867.97;4210187;28;20041;-79
2023/04/02 07:11:15;;;;;;;10.85;2.55;;;10.50;99.90;;;9.65;100.00;101864.84;4202488;28;20032;-79
2023/04/02 07:13:22;;;;;;;11.10;2.92;;;10.50;99.90;;;9.70;100.00;101872.41;4201131;28;20028;-79
2023/04/02 07:15:24;;;;;;;8.15;2.88;;;10.50;99.90;;;9.73;100.00;101873.00;4196268;28;20035;-80
2023/04/02 07:17:25;;;;;;;8.30;2.83;;;10.50;99.90;;;9.74;100.00;101879.94;4203168;28;20029;-80
2023/04/02 07:19:26;;;;;;;9.77;3.47;;;10.60;99.90;;;9.79;100.00;101866.41;4204197;28;20044;-78
2023/04/02 07:21:27;;;;;;;10.32;2.42;;;10.60;99.90;;;9.74;100.00;101869.38;4202937;28;20024;-79
2023/04/02 07:23:28;;;;;;;8.20;2.63;;;10.60;99.90;;;9.87;100.00;101878.00;4202852;28;20028;-80
2023/04/02 07:25:29;;;;;;;7.85;3.03;;;10.60;99.90;;;9.85;100.00;101873.81;4203019;28;20020;-79
2023/04/02 07:27:30;;;;;;;6.85;2.67;;;10.60;99.90;;;9.98;100.00;101883.22;4204906;28;20427;-79
2023/04/02 07:29:31;;;;;;;11.07;3.47;;;10.70;99.90;;;9.92;100.00;101886.34;4222034;27;20024;-80
2023/04/02 07:31:32;;;;;;;11.05;3.20;;;10.70;99.90;;;9.96;100.00;101886.94;4200908;28;20032;-79
2023/04/02 07:33:32;;;;;;;12.73;4.00;;;10.70;99.90;;;9.95;100.00;101891.38;4216984;28;20098;-79
2023/04/02 07:35:33;;;;;;;15.10;3.15;;;10.70;99.90;;;9.92;100.00;101898.69;4217010;28;20024;-80
2023/04/02 07:37:34;;;;;;;12.85;3.20;;;10.70;99.90;;;9.92;100.00;101893.44;4204217;28;20027;-79
2023/04/02 07:39:35;;;;;;;8.77;2.45;;;10.70;99.90;;;9.91;100.00;101908.44;4206387;28;20043;-80
2023/04/02 07:41:58;;;;;;;8.20;2.88;;;10.70;99.90;;;9.91;100.00;101895.25;4206636;28;20012;-79
2023/04/02 07:43:59;;;;;;;13.18;3.08;;;10.70;99.90;;;9.97;100.00;101897.34;4209762;28;20050;-79
2023/04/02 07:46:00;;;;;;;10.30;3.53;;;10.80;99.90;;;9.89;100.00;101899.78;4220827;28;20020;-80
2023/04/02 07:48:11;;;;;;;13.20;3.20;;;10.80;99.90;;;9.98;100.00;101908.75;4220765;28;20121;-80
2023/04/02 07:50:12;;;;;;;9.82;2.60;;;10.80;99.90;;;10.13;100.00;101907.53;4219509;28;20028;-80
2023/04/02 07:52:13;;;;;;;8.07;2.92;;;10.80;99.90;;;10.21;100.00;101905.13;4219649;28;20032;-80
2023/04/02 07:54:14;;;;;;;8.52;4.32;;;11.00;99.90;;;10.38;100.00;101904.59;4226727;28;20509;-80
2023/04/02 07:56:19;;;;;;;8.73;2.47;;;11.00;99.90;;;10.29;100.00;101907.13;4211497;28;20036;-79
2023/04/02 07:58:20;;;;;;;10.45;2.60;;;11.10;99.90;;;10.44;100.00;101904.06;4202646;28;20067;-80
2023/04/02 08:00:22;;;;;;;8.13;2.78;;;11.20;99.90;;;10.43;100.00;101902.41;4203742;28;20499;-80
2023/04/02 08:02:23;;;;;;;5.80;1.90;;;11.30;99.90;;;10.54;100.00;101896.25;4212058;28;20403;-80
2023/04/02 08:04:24;;;;;;;5.55;2.30;;;11.30;99.90;;;10.57;100.00;101896.78;4209643;28;20033;-80
2023/04/02 08:06:25;;;;;;;7.90;2.85;;;11.30;99.90;;;10.56;100.00;101899.59;4203552;28;20476;-80
2023/04/02 08:08:26;;;;;;;7.10;2.90;;;11.30;99.90;;;10.53;100.00;101900.69;4210269;28;20048;-80
2023/04/02 08:10:27;;;;;;;9.27;2.97;;;11.30;99.90;;;10.60;100.00;101902.81;4202373;28;20020;-80
2023/04/02 08:12:27;;;;;;;11.50;3.55;;;11.30;99.90;;;10.66;100.00;101902.28;4203393;28;20024;-79
2023/04/02 08:14:28;;;;;;;9.55;3.08;;;11.30;99.90;;;10.69;100.00;101897.59;4203381;28;20103;-80
2023/04/02 08:16:53;;;;;;;6.05;2.90;;;11.30;99.90;;;10.80;100.00;101910.72;4202306;28;20032;-81
2023/04/02 08:18:54;;;;;;;4.82;3.33;;;11.50;99.90;;;10.89;100.00;101917.88;4197567;28;20588;-80
2023/04/02 08:20:56;;;;;;;5.03;2.20;;;11.60;99.90;;;10.79;100.00;101916.97;4218758;28;20115;-80
2023/04/02 08:22:57;;;;;;;4.95;2.08;;;11.60;99.90;;;10.74;100.00;101918.31;4219094;28;20126;-80
2023/04/02 08:24:58;;;;;;;5.72;2.15;;;11.50;99.90;;;10.90;100.00;101924.00;4215615;28;20074;-80
2023/04/02 08:26:59;;;;;;;5.18;2.20;;;11.60;99.90;;;10.80;97.86;101917.81;4202049;28;20074;-80
2023/04/02 08:29:00;;;;;;;5.72;2.25;;;11.70;99.90;;;10.80;97.39;101937.13;4201974;28;20388;-80
2023/04/02 08:31:01;;;;;;;4.40;2.30;;;11.70;99.90;;;10.78;96.69;101928.47;4203644;28;20024;-80
2023/04/02 08:33:02;;;;;;;6.78;2.20;;;11.70;99.90;;;10.76;96.55;101933.06;4203284;28;20051;-80
2023/04/02 08:35:03;;;;;;;3.58;2.00;;;11.70;99.90;;;10.83;97.32;101926.31;4215175;28;20063;-80
2023/04/02 08:37:04;;;;;;;6.13;1.80;;;11.70;99.90;;;10.94;97.16;101934.16;4203447;28;20541;-80
2023/04/02 08:39:11;;;;;;;5.70;1.63;;;11.70;99.90;;;10.92;96.14;101933.47;4223725;28;20019;-80
2023/04/02 08:41:27;;;;;;;5.10;1.98;;;11.90;99.90;;;10.98;95.51;101932.09;4201765;28;20032;-80
2023/04/02 08:44:06;;;;;;;6.68;2.58;;;11.90;99.90;;;11.12;96.50;101934.41;4203005;28;20052;-80
2023/04/02 08:46:45;;;;;;;7.78;2.03;;;11.90;99.90;;;11.23;94.39;101941.41;4203059;28;20029;-80
2023/04/02 08:48:54;;;;;;;4.90;1.73;;;12.00;99.90;;;11.07;93.35;101934.81;4192623;28;20035;-80
2023/04/02 08:50:57;;;;;;;4.63;1.92;;;12.00;99.90;;;11.03;92.87;101943.94;4210984;28;20037;-80
2023/04/02 08:53:02;;;;;;;7.97;2.47;;;12.00;99.90;;;11.11;93.52;101944.13;4201795;28;20021;-81
2023/04/02 08:55:17;;;;;;;3.40;1.60;;;12.00;99.90;;;11.11;93.61;101946.75;4201543;28;20040;-80
2023/04/02 08:57:30;;;;;;;5.03;2.35;;;12.00;99.90;;;11.01;93.62;101953.81;4201655;28;20047;-80
2023/04/02 08:59:35;;;;;;;2.67;1.40;;;12.00;99.90;;;10.85;93.98;101947.28;4214195;28;20112;-79
2023/04/02 09:02:01;;;;;;;4.75;1.58;;;11.90;99.90;;;10.77;94.22;101963.78;4204329;28;20047;-80
2023/04/02 09:04:13;;;;;;;5.43;1.80;;;11.70;99.90;;;10.78;93.94;101968.06;4218544;28;20039;-80
2023/04/02 09:06:19;;;;;;;3.78;1.42;;;11.70;99.90;;;10.96;93.66;101976.28;4202160;28;20042;-79